Time;durP1;ratioP1;P1;durP2;ratioP2;P2;SDS_P1;SDS_P2;PMS_P1;PMS_P2;Temp;Humidity;BMP_temperature;BMP_pressure;BME280_temperature;BME280_humidity;BME280_pressure;Samples;Min_cycle;Max_cycle;Signal;HPM_P1;HPM_P2
2022/08/07 20:42:57;;;;;;;2.10;2.00;;;25.20;47.40;;;;;;5096378;27;20527;-62
2022/08/07 20:45:26;;;;;;;1.77;1.77;;;25.10;47.90;;;;;;5074831;28;20462;-61
2022/08/07 20:47:56;;;;;;;2.23;2.13;;;25.10;47.80;;;;;;5075574;28;20536;-59
2022/08/07 20:50:25;;;;;;;2.60;2.50;;;25.00;47.70;;;;;;5077816;28;20434;-62
2022/08/07 20:52:52;;;;;;;2.60;2.50;;;25.10;47.80;;;;;;5074350;28;20845;-63
2022/08/07 20:55:21;;;;;;;1.93;1.83;;;25.10;47.80;;;;;;5093766;28;20523;-60
2022/08/07 20:57:52;;;;;;;3.00;2.30;;;25.10;47.70;;;;;;5089885;28;20434;-60
2022/08/07 21:00:22;;;;;;;3.00;2.10;;;25.20;47.70;;;;;;5089852;28;20920;-58
2022/08/07 21:02:57;;;;;;;2.63;2.43;;;25.20;47.70;;;;;;5089518;28;20521;-56
2022/08/07 21:05:27;;;;;;;2.60;2.47;;;25.20;47.80;;;;;;5089733;28;20477;-60
2022/08/07 21:07:59;;;;;;;2.77;2.47;;;25.10;47.70;;;;;;5078740;28;20522;-58
2022/08/07 21:10:28;;;;;;;2.10;2.00;;;25.10;47.60;;;;;;5069794;28;20852;-61
2022/08/07 21:12:59;;;;;;;2.50;2.30;;;25.00;47.80;;;;;;5069325;28;20473;-56
2022/08/07 21:15:32;;;;;;;2.53;2.43;;;25.00;47.90;;;;;;5069403;28;20478;-57
2022/08/07 21:18:04;;;;;;;2.63;2.40;;;25.00;47.90;;;;;;5069581;28;20448;-60
2022/08/07 21:20:32;;;;;;;2.90;2.70;;;24.90;47.90;;;;;;5070727;28;20447;-60
2022/08/07 21:23:03;;;;;;;4.93;3.37;;;24.90;48.00;;;;;;5089063;28;21010;-60
2022/08/07 21:25:41;;;;;;;2.87;2.67;;;24.90;48.20;;;;;;5089322;28;20466;-59
2022/08/07 21:28:13;;;;;;;2.20;2.03;;;24.90;48.10;;;;;;5089794;28;20438;-60
2022/08/07 21:30:51;;;;;;;1.90;1.80;;;25.00;48.10;;;;;;5089479;28;20478;-50
2022/08/07 21:33:22;;;;;;;1.97;1.87;;;24.90;48.30;;;;;;5088316;28;20498;-58
2022/08/07 21:35:56;;;;;;;2.90;2.70;;;25.00;48.30;;;;;;5087485;28;20485;-57
2022/08/07 21:38:28;;;;;;;3.00;2.70;;;25.00;48.20;;;;;;5088471;28;20478;-57
2022/08/07 21:41:03;;;;;;;2.60;2.40;;;25.00;48.20;;;;;;5088062;28;20519;-55
2022/08/07 21:43:40;;;;;;;1.83;1.73;;;25.00;48.20;;;;;;5087821;28;20818;-52
2022/08/07 21:46:15;;;;;;;2.60;2.40;;;25.00;48.20;;;;;;5088139;28;20442;-57
2022/08/07 21:48:50;;;;;;;2.20;2.10;;;25.00;48.40;;;;;;5079604;28;20461;-56
2022/08/07 21:51:31;;;;;;;2.10;2.00;;;25.00;48.50;;;;;;5067693;28;20534;-54
2022/08/07 21:54:12;;;;;;;2.30;2.20;;;24.90;48.60;;;;;;5055794;28;20468;-50
2022/08/07 21:56:45;;;;;;;2.20;2.10;;;24.90;48.60;;;;;;5054329;28;20479;-51
2022/08/07 21:59:28;;;;;;;2.03;1.93;;;24.90;48.80;;;;;;5054372;28;20444;-49
2022/08/07 22:02:02;;;;;;;2.27;1.93;;;24.80;48.90;;;;;;5058215;28;20485;-54
2022/08/07 22:04:33;;;;;;;1.67;1.67;;;24.90;49.10;;;;;;5074159;28;20835;-52
2022/08/07 22:07:05;;;;;;;1.80;1.70;;;24.80;49.10;;;;;;5074239;28;20482;-50
2022/08/07 22:09:36;;;;;;;2.10;2.00;;;24.80;49.30;;;;;;5074153;28;20820;-50
2022/08/07 22:12:14;;;;;;;1.67;1.67;;;24.70;49.30;;;;;;5074307;28;20815;-52
2022/08/07 22:14:47;;;;;;;2.10;1.97;;;24.70;49.50;;;;;;5073266;28;20498;-50
2022/08/07 22:17:19;;;;;;;1.77;1.67;;;24.60;49.60;;;;;;5074074;28;20474;-52
2022/08/07 22:20:02;;;;;;;2.33;2.20;;;24.60;49.80;;;;;;5073992;28;20928;-54
2022/08/07 22:22:35;;;;;;;2.23;2.00;;;24.60;50.00;;;;;;5073764;28;20918;-57
2022/08/07 22:25:09;;;;;;;1.80;1.70;;;24.60;50.10;;;;;;5073650;28;20546;-52
2022/08/07 22:27:42;;;;;;;2.17;2.00;;;24.50;50.20;;;;;;5070486;28;20448;-52
2022/08/07 22:30:15;;;;;;;1.80;1.67;;;24.50;50.30;;;;;;5053865;28;20506;-57
2022/08/07 22:33:00;;;;;;;2.07;1.93;;;24.50;50.40;;;;;;5053700;28;20444;-54
2022/08/07 22:35:32;;;;;;;2.07;1.97;;;24.50;50.60;;;;;;5053569;28;20451;-54
2022/08/07 22:38:16;;;;;;;2.07;1.97;;;24.50;50.70;;;;;;5053733;28;20953;-52
2022/08/07 22:40:53;;;;;;;2.23;2.13;;;24.50;50.80;;;;;;5053667;28;20452;-52
2022/08/07 22:43:27;;;;;;;2.27;2.13;;;24.40;50.90;;;;;;5073188;28;20574;-54
2022/08/07 22:46:21;;;;;;;2.33;2.13;;;24.30;50.90;;;;;;5073235;28;20504;-53
2022/08/07 22:49:22;;;;;;;2.10;1.90;;;24.40;51.20;;;;;;5073613;28;20451;-56
2022/08/07 22:52:07;;;;;;;1.90;1.80;;;24.30;51.20;;;;;;5073460;28;20438;-57
2022/08/07 22:55:02;;;;;;;2.73;2.53;;;24.30;51.30;;;;;;5073182;28;20465;-52
2022/08/07 22:57:49;;;;;;;2.10;2.00;;;24.20;51.50;;;;;;5028362;28;21069;-54
2022/08/07 23:00:20;;;;;;;2.73;2.53;;;24.20;51.60;;;;;;5033469;28;20536;-56
2022/08/07 23:03:02;;;;;;;2.80;2.70;;;24.20;51.80;;;;;;5033273;28;20485;-58
2022/08/07 23:05:54;;;;;;;2.13;2.03;;;24.20;51.90;;;;;;5032167;28;20444;-52
2022/08/07 23:08:47;;;;;;;2.20;1.90;;;24.20;51.90;;;;;;5033751;28;20503;-54
2022/08/07 23:11:31;;;;;;;1.80;1.70;;;24.20;52.00;;;;;;5070474;28;20893;-56
2022/08/07 23:14:17;;;;;;;2.40;2.30;;;24.20;52.10;;;;;;5072803;28;20498;-57
2022/08/07 23:17:00;;;;;;;1.90;1.80;;;24.10;52.20;;;;;;5072880;28;20439;-53
2022/08/07 23:22:35;;;;;;;2.40;2.30;;;24.20;52.40;;;;;;5072764;28;20470;-55
2022/08/07 23:25:17;;;;;;;4.47;2.23;;;24.10;52.40;;;;;;5070859;28;20584;-54
2022/08/07 23:28:00;;;;;;;2.03;1.93;;;24.10;52.60;;;;;;5072844;28;20449;-57
2022/08/07 23:30:37;;;;;;;2.40;2.20;;;24.10;52.70;;;;;;5072924;28;20458;-53
2022/08/07 23:33:29;;;;;;;2.07;1.97;;;24.10;52.80;;;;;;5070704;28;20470;-54
2022/08/07 23:36:07;;;;;;;1.77;1.67;;;24.00;52.90;;;;;;5060966;28;20444;-50
2022/08/07 23:38:53;;;;;;;1.83;1.77;;;24.00;53.10;;;;;;5072616;28;20862;-52
2022/08/07 23:41:40;;;;;;;2.30;2.20;;;24.00;53.10;;;;;;5072400;28;20451;-53
2022/08/07 23:44:31;;;;;;;2.20;2.10;;;24.00;53.70;;;;;;5071978;28;20543;-57
2022/08/07 23:47:33;;;;;;;2.47;2.27;;;24.00;53.20;;;;;;5042761;28;20800;-54
2022/08/07 23:50:35;;;;;;;2.00;1.90;;;24.00;53.20;;;;;;5058362;28;20975;-56
2022/08/07 23:53:11;;;;;;;2.30;2.20;;;24.00;53.40;;;;;;5010226;28;20520;-54
2022/08/07 23:55:45;;;;;;;2.37;2.17;;;23.90;53.50;;;;;;5046927;28;20547;-53
2022/08/07 23:58:18;;;;;;;1.97;1.87;;;23.80;53.60;;;;;;5052190;28;20443;-55
